createdAt,value
2019-05-25T00:00:56.174Z,14.30
2019-05-25T00:02:57.460Z,14.30
2019-05-25T00:04:58.854Z,14.20
2019-05-25T00:07:00.449Z,14.10
2019-05-25T00:09:01.978Z,14.20
2019-05-25T00:11:03.354Z,14.10
2019-05-25T00:13:04.899Z,14.10
2019-05-25T00:15:06.118Z,14.10
2019-05-25T00:17:07.378Z,14.10
2019-05-25T00:19:08.805Z,14.10
2019-05-25T00:21:13.628Z,14.10
2019-05-25T00:23:13.577Z,14.00
2019-05-25T00:25:14.838Z,14.00
2019-05-25T00:27:16.103Z,14.00
2019-05-25T00:29:17.369Z,13.90
2019-05-25T00:31:18.890Z,13.80
2019-05-25T00:33:20.264Z,13.80
2019-05-25T00:35:21.530Z,13.70
2019-05-25T00:37:23.106Z,13.80
2019-05-25T00:39:24.299Z,13.70
2019-05-25T00:41:25.565Z,13.70
2019-05-25T00:43:26.889Z,13.60
2019-05-25T00:45:28.249Z,13.50
2019-05-25T00:47:30.509Z,13.60
2019-05-25T00:49:31.781Z,13.60
2019-05-25T00:51:33.082Z,13.50
2019-05-25T00:53:34.358Z,13.60
2019-05-25T00:55:35.675Z,13.50
2019-05-25T00:57:37.297Z,13.40
2019-05-25T00:59:38.809Z,13.30
2019-05-25T01:01:40.334Z,13.30
2019-05-25T01:03:42.965Z,13.10
2019-05-25T01:05:44.254Z,12.80
2019-05-25T01:07:45.525Z,12.90
2019-05-25T01:09:46.792Z,12.90
2019-05-25T01:11:48.366Z,13.10
2019-05-25T01:13:49.615Z,13.20
2019-05-25T01:15:50.877Z,13.30
2019-05-25T01:17:52.398Z,13.20
2019-05-25T01:19:53.657Z,13.20
2019-05-25T01:21:54.929Z,13.20
2019-05-25T01:23:56.206Z,13.10
2019-05-25T01:25:57.470Z,13.00
2019-05-25T01:27:58.737Z,13.00
2019-05-25T01:30:00.014Z,12.70
2019-05-25T01:32:01.296Z,13.00
2019-05-25T01:34:02.657Z,13.10
2019-05-25T01:36:03.919Z,13.20
2019-05-25T01:38:05.193Z,13.20
2019-05-25T01:40:07.391Z,13.00
2019-05-25T01:42:08.722Z,12.80
2019-05-25T01:44:10.250Z,12.50
2019-05-25T01:46:11.548Z,12.00
2019-05-25T01:48:12.867Z,11.90
2019-05-25T01:50:15.065Z,11.80
2019-05-25T01:52:16.340Z,11.60
2019-05-25T01:54:17.887Z,11.70
2019-05-25T01:56:20.521Z,11.60
2019-05-25T01:58:21.963Z,11.70
2019-05-25T02:00:23.871Z,11.70
2019-05-25T02:02:25.195Z,11.60
2019-05-25T02:04:26.583Z,11.80
2019-05-25T02:06:27.861Z,11.70
2019-05-25T02:08:29.162Z,11.80
2019-05-25T02:10:30.750Z,11.80
2019-05-25T02:12:32.029Z,11.70
2019-05-25T02:14:33.363Z,11.80
2019-05-25T02:16:34.739Z,11.90
2019-05-25T02:18:36.049Z,11.80
2019-05-25T02:20:38.346Z,11.90
2019-05-25T02:22:39.655Z,12.00
2019-05-25T02:24:40.955Z,12.20
2019-05-25T02:26:43.776Z,12.30
2019-05-25T02:28:45.150Z,12.20
2019-05-25T02:30:46.463Z,12.20
2019-05-25T02:32:47.749Z,12.20
2019-05-25T02:34:49.044Z,12.20
2019-05-25T02:36:51.522Z,12.20
2019-05-25T02:38:52.862Z,12.10
2019-05-25T02:40:55.242Z,12.00
2019-05-25T02:42:56.531Z,11.70
2019-05-25T02:44:57.868Z,11.70
2019-05-25T02:46:59.236Z,11.60
2019-05-25T02:49:00.507Z,11.60
2019-05-25T02:51:01.858Z,11.50
2019-05-25T02:53:03.479Z,11.60
2019-05-25T02:55:06.454Z,11.70
2019-05-25T02:57:07.825Z,11.60
2019-05-25T02:59:09.117Z,11.60
2019-05-25T03:01:10.426Z,11.70
2019-05-25T03:03:11.950Z,11.70
2019-05-25T03:05:14.095Z,11.60
2019-05-25T03:07:15.616Z,11.60
2019-05-25T03:09:18.566Z,11.50
2019-05-25T03:11:20.057Z,11.40
2019-05-25T03:13:21.380Z,11.30
2019-05-25T03:15:22.770Z,11.30
2019-05-25T03:17:24.303Z,11.20
2019-05-25T03:19:25.602Z,11.20
2019-05-25T03:21:26.885Z,11.20
2019-05-25T03:23:28.191Z,11.10
2019-05-25T03:25:29.619Z,11.10
2019-05-25T03:27:30.890Z,11.20
2019-05-25T03:29:32.536Z,11.10
2019-05-25T03:31:33.828Z,11.00
2019-05-25T03:33:35.215Z,11.00
2019-05-25T03:35:36.503Z,11.00
2019-05-25T03:37:37.925Z,10.90
2019-05-25T03:39:40.278Z,10.90
2019-05-25T03:41:41.623Z,10.80
2019-05-25T03:43:43.172Z,10.80
2019-05-25T03:45:44.480Z,10.80
2019-05-25T03:47:45.751Z,11.00
2019-05-25T03:49:47.028Z,11.30
2019-05-25T03:51:48.670Z,11.30
2019-05-25T03:53:50.035Z,11.20
2019-05-25T03:56:04.751Z,11.00
2019-05-25T03:57:54.614Z,11.00
2019-05-25T03:59:55.906Z,11.00
2019-05-25T04:01:57.211Z,11.00
2019-05-25T04:03:59.494Z,10.90
2019-05-25T04:06:00.850Z,10.90
2019-05-25T04:08:02.484Z,10.90
2019-05-25T04:10:05.586Z,10.90
2019-05-25T04:12:06.875Z,11.00
2019-05-25T04:14:08.231Z,10.90
2019-05-25T04:16:09.609Z,11.00
2019-05-25T04:18:11.894Z,11.00
2019-05-25T04:20:13.278Z,11.00
2019-05-25T04:22:14.553Z,11.10
2019-05-25T04:24:15.938Z,11.20
2019-05-25T04:26:22.549Z,11.10
2019-05-25T04:28:20.691Z,11.20
2019-05-25T04:30:22.291Z,11.20
2019-05-25T04:32:23.531Z,11.10
2019-05-25T04:34:24.819Z,11.30
2019-05-25T04:36:26.486Z,11.20
2019-05-25T04:38:28.071Z,11.30
2019-05-25T04:40:29.602Z,11.30
2019-05-25T04:42:31.978Z,11.20
2019-05-25T04:44:33.334Z,11.20
2019-05-25T04:46:34.773Z,11.30
2019-05-25T04:48:36.061Z,11.30
2019-05-25T04:50:37.382Z,11.40
2019-05-25T04:52:41.257Z,11.50
2019-05-25T04:54:41.844Z,11.40
2019-05-25T04:56:43.142Z,11.50
2019-05-25T04:58:44.462Z,11.50
2019-05-25T05:00:45.924Z,11.50
2019-05-25T05:02:48.485Z,11.50
2019-05-25T05:04:49.734Z,11.40
2019-05-25T05:06:51.173Z,11.50
2019-05-25T05:08:52.558Z,11.50
2019-05-25T05:10:54.171Z,11.60
2019-05-25T05:12:55.568Z,11.70
2019-05-25T05:14:56.898Z,11.60
2019-05-25T05:16:58.190Z,11.70
2019-05-25T05:18:59.451Z,11.90
2019-05-25T05:21:01.096Z,11.90
2019-05-25T05:23:02.361Z,11.70
2019-05-25T05:25:04.954Z,11.60
2019-05-25T05:27:06.277Z,11.60
2019-05-25T05:29:07.551Z,11.60
2019-05-25T05:31:22.824Z,11.60
2019-05-25T05:33:12.035Z,11.70
2019-05-25T05:35:13.620Z,11.80
2019-05-25T05:37:15.311Z,11.90
2019-05-25T05:39:16.537Z,11.90
2019-05-25T05:41:18.431Z,11.90
2019-05-25T05:43:19.814Z,12.10
2019-05-25T05:45:21.107Z,12.30
2019-05-25T05:47:23.390Z,12.40
2019-05-25T05:49:27.357Z,12.60
2019-05-25T05:51:31.255Z,12.40
2019-05-25T05:53:34.739Z,12.40
2019-05-25T05:55:36.036Z,12.10
2019-05-25T05:57:37.395Z,12.10
2019-05-25T05:59:38.671Z,12.00
2019-05-25T06:01:39.970Z,11.90
2019-05-25T06:03:41.263Z,11.90
2019-05-25T06:05:42.550Z,11.90
2019-05-25T06:07:43.857Z,12.00
2019-05-25T06:09:45.247Z,12.20
2019-05-25T06:11:46.549Z,12.20
2019-05-25T06:13:47.828Z,12.10
2019-05-25T06:15:49.166Z,12.00
2019-05-25T06:17:50.445Z,12.20
2019-05-25T06:19:51.746Z,12.20
2019-05-25T06:21:53.052Z,12.20
2019-05-25T06:23:55.267Z,12.10
2019-05-25T06:25:56.547Z,12.10
2019-05-25T06:27:57.857Z,12.20
2019-05-25T06:29:59.139Z,12.20
2019-05-25T06:32:00.423Z,12.20
2019-05-25T06:34:01.882Z,12.20
2019-05-25T06:36:03.213Z,12.20
2019-05-25T06:38:04.493Z,12.20
2019-05-25T06:40:07.285Z,12.10
2019-05-25T06:42:08.651Z,12.10
2019-05-25T06:44:09.989Z,12.10
2019-05-25T06:46:11.348Z,12.10
2019-05-25T06:48:12.672Z,12.30
2019-05-25T06:50:14.463Z,12.40
2019-05-25T06:52:15.936Z,12.30
2019-05-25T06:54:17.217Z,12.40
2019-05-25T06:56:18.789Z,12.50
2019-05-25T06:58:21.396Z,12.70
2019-05-25T07:00:23.601Z,12.50
2019-05-25T07:02:24.911Z,12.50
2019-05-25T07:04:26.454Z,12.60
2019-05-25T07:06:28.026Z,12.60
2019-05-25T07:08:29.543Z,12.80
2019-05-25T07:10:30.838Z,12.90
2019-05-25T07:12:33.145Z,12.90
2019-05-25T07:14:34.434Z,12.80
2019-05-25T07:16:35.725Z,12.80
2019-05-25T07:18:37.070Z,12.80
2019-05-25T07:20:38.497Z,12.80
2019-05-25T07:22:40.015Z,12.90
2019-05-25T07:24:41.637Z,12.60
2019-05-25T07:26:43.009Z,12.60
2019-05-25T07:28:44.446Z,12.80
2019-05-25T07:30:46.716Z,12.90
2019-05-25T07:32:48.506Z,13.00
2019-05-25T07:34:49.695Z,12.80
2019-05-25T07:36:51.016Z,12.80
2019-05-25T07:38:52.312Z,12.80
2019-05-25T07:40:53.707Z,12.90
2019-05-25T07:42:55.095Z,13.10
2019-05-25T07:44:56.470Z,13.10
2019-05-25T07:46:57.786Z,13.40
2019-05-25T07:48:59.503Z,13.20
2019-05-25T07:51:00.783Z,13.30
2019-05-25T07:53:02.088Z,13.40
2019-05-25T07:55:04.645Z,13.50
2019-05-25T07:57:05.955Z,13.70
2019-05-25T07:59:07.498Z,13.60
2019-05-25T08:01:08.813Z,13.60
2019-05-25T08:03:10.122Z,13.80
2019-05-25T08:05:11.984Z,13.40
2019-05-25T08:07:13.360Z,13.60
2019-05-25T08:09:14.682Z,13.50
2019-05-25T08:11:15.960Z,13.30
2019-05-25T08:13:17.241Z,13.30
2019-05-25T08:15:18.605Z,13.00
2019-05-25T08:17:20.016Z,12.90
2019-05-25T08:19:21.285Z,12.90
2019-05-25T08:21:22.631Z,13.20
2019-05-25T08:23:23.915Z,13.00
2019-05-25T08:25:25.270Z,13.30
2019-05-25T08:27:26.622Z,13.40
2019-05-25T08:29:27.902Z,13.50
2019-05-25T08:31:29.471Z,13.70
2019-05-25T08:33:30.699Z,14.00
2019-05-25T08:35:32.321Z,13.80
2019-05-25T08:37:33.658Z,13.80
2019-05-25T08:39:35.524Z,13.80
2019-05-25T08:41:36.817Z,14.10
2019-05-25T08:43:38.125Z,14.40
2019-05-25T08:45:39.506Z,14.30
2019-05-25T08:47:40.796Z,14.20
2019-05-25T08:49:42.075Z,14.40
2019-05-25T08:51:43.770Z,14.20
2019-05-25T08:53:46.691Z,14.40
2019-05-25T08:55:48.372Z,14.00
2019-05-25T08:57:49.634Z,13.90
2019-05-25T08:59:50.943Z,14.00
2019-05-25T09:01:52.321Z,14.40
2019-05-25T09:03:53.759Z,14.60
2019-05-25T09:05:55.134Z,14.80
2019-05-25T09:07:56.426Z,15.10
2019-05-25T09:09:57.716Z,15.50
2019-05-25T09:11:59.360Z,15.30
2019-05-25T09:14:00.721Z,15.10
2019-05-25T09:16:02.002Z,14.80
2019-05-25T09:18:03.549Z,14.60
2019-05-25T09:20:05.927Z,14.40
2019-05-25T09:22:07.195Z,14.30
2019-05-25T09:24:08.474Z,14.20
2019-05-25T09:26:13.250Z,14.40
2019-05-25T09:28:21.686Z,14.40
2019-05-25T09:30:26.666Z,14.70
2019-05-25T09:32:28.089Z,14.90
2019-05-25T09:34:29.397Z,15.30
2019-05-25T09:36:30.681Z,15.20
2019-05-25T09:38:31.967Z,15.20
2019-05-25T09:40:33.431Z,15.40
2019-05-25T09:42:34.853Z,15.20
2019-05-25T09:44:36.221Z,15.40
2019-05-25T09:46:37.599Z,15.70
2019-05-25T09:48:39.301Z,15.50
2019-05-25T09:50:40.527Z,15.50
2019-05-25T09:52:42.124Z,16.00
2019-05-25T09:54:43.321Z,16.40
2019-05-25T09:56:44.586Z,16.90
2019-05-25T09:58:45.871Z,17.10
2019-05-25T10:00:47.299Z,17.30
2019-05-25T10:02:48.859Z,17.40
2019-05-25T10:04:50.243Z,17.60
2019-05-25T10:06:51.505Z,17.80
2019-05-25T10:08:53.021Z,17.70
2019-05-25T10:10:54.296Z,16.90
2019-05-25T10:12:56.671Z,16.50
2019-05-25T10:14:58.036Z,16.40
2019-05-25T10:17:00.718Z,16.70
2019-05-25T10:19:02.645Z,16.20
2019-05-25T10:21:04.218Z,16.10
2019-05-25T10:23:08.488Z,16.50
2019-05-25T10:25:15.024Z,16.90
2019-05-25T10:27:16.451Z,17.30
2019-05-25T10:29:17.724Z,17.60
2019-05-25T10:31:19.006Z,17.60
2019-05-25T10:33:21.931Z,17.90
2019-05-25T10:35:23.366Z,18.20
2019-05-25T10:37:24.754Z,18.40
2019-05-25T10:39:26.025Z,18.00
2019-05-25T10:41:27.302Z,18.00
2019-05-25T10:43:29.381Z,17.50
2019-05-25T10:45:30.753Z,17.90
2019-05-25T10:47:32.020Z,18.30
2019-05-25T10:49:33.287Z,18.60
2019-05-25T10:51:34.591Z,18.70
2019-05-25T10:53:35.866Z,18.70
2019-05-25T10:55:37.247Z,18.80
2019-05-25T10:57:38.521Z,18.50
2019-05-25T10:59:52.623Z,18.60
2019-05-25T11:01:43.162Z,18.70
2019-05-25T11:03:44.860Z,19.00
2019-05-25T11:05:46.266Z,18.80
2019-05-25T11:07:47.630Z,17.80
2019-05-25T11:09:48.955Z,18.40
2019-05-25T11:11:50.400Z,18.70
2019-05-25T11:13:51.667Z,19.00
2019-05-25T11:15:53.037Z,19.20
2019-05-25T11:17:55.326Z,19.30
2019-05-25T11:19:56.709Z,18.70
2019-05-25T11:21:57.991Z,18.30
2019-05-25T11:23:59.261Z,17.80
2019-05-25T11:26:00.581Z,18.00
2019-05-25T11:28:01.942Z,18.10
2019-05-25T11:30:09.382Z,18.50
2019-05-25T11:32:08.683Z,18.90
2019-05-25T11:34:09.906Z,19.20
2019-05-25T11:36:11.260Z,18.60
2019-05-25T11:38:12.610Z,19.00
2019-05-25T11:40:14.422Z,18.60
2019-05-25T11:42:15.797Z,18.80
2019-05-25T11:44:17.061Z,19.10
2019-05-25T11:46:18.621Z,18.50
2019-05-25T11:48:19.888Z,18.60
2019-05-25T11:50:21.249Z,18.90
2019-05-25T11:52:22.554Z,19.30
2019-05-25T11:54:23.855Z,19.00
2019-05-25T11:56:26.482Z,19.40
2019-05-25T11:58:27.626Z,19.70
2019-05-25T12:00:29.010Z,20.00
2019-05-25T12:02:30.450Z,20.20
2019-05-25T12:04:31.798Z,19.20
2019-05-25T12:06:33.356Z,17.70
2019-05-25T12:08:34.495Z,17.10
2019-05-25T12:10:35.815Z,17.80
2019-05-25T12:12:38.091Z,18.00
2019-05-25T12:14:40.962Z,17.90
2019-05-25T12:16:42.238Z,18.50
2019-05-25T12:18:43.497Z,19.00
2019-05-25T12:20:45.029Z,19.10
2019-05-25T12:22:46.298Z,19.00
2019-05-25T12:24:47.651Z,19.50
2019-05-25T12:26:49.041Z,19.90
2019-05-25T12:28:50.302Z,20.00
2019-05-25T12:30:51.862Z,19.30
2019-05-25T12:32:53.072Z,19.10
2019-05-25T12:34:54.348Z,18.80
2019-05-25T12:36:55.630Z,18.90
2019-05-25T12:38:56.997Z,19.60
2019-05-25T12:40:58.270Z,20.00
2019-05-25T12:42:59.537Z,20.40
2019-05-25T12:45:01.099Z,20.40
2019-05-25T12:47:02.497Z,20.70
2019-05-25T12:49:04.097Z,20.50
2019-05-25T12:51:05.511Z,19.20
2019-05-25T12:53:06.859Z,19.80
2019-05-25T12:55:09.557Z,20.40
2019-05-25T12:57:10.943Z,20.80
2019-05-25T12:59:14.494Z,20.80
2019-05-25T13:01:15.670Z,21.10
2019-05-25T13:03:17.026Z,20.90
2019-05-25T13:05:32.872Z,20.90
2019-05-25T13:07:21.495Z,21.00
2019-05-25T13:09:23.168Z,21.40
2019-05-25T13:11:24.334Z,22.30
2019-05-25T13:13:25.631Z,22.00
2019-05-25T13:15:26.886Z,23.00
2019-05-25T13:17:29.154Z,23.00
2019-05-25T13:19:30.421Z,22.40
2019-05-25T13:21:31.685Z,22.70
2019-05-25T13:23:33.237Z,22.80
2019-05-25T13:25:34.625Z,22.70
2019-05-25T13:27:35.898Z,23.30
2019-05-25T13:29:37.158Z,23.90
2019-05-25T13:31:38.426Z,24.60
2019-05-25T13:33:39.762Z,25.20
2019-05-25T13:35:41.049Z,24.50
2019-05-25T13:37:42.357Z,24.80
2019-05-25T13:39:43.622Z,25.20
2019-05-25T13:41:44.933Z,25.60
2019-05-25T13:43:46.267Z,26.10
2019-05-25T13:45:47.874Z,25.70
2019-05-25T13:47:49.173Z,25.70
2019-05-25T13:49:50.791Z,25.40
2019-05-25T13:51:52.201Z,25.10
2019-05-25T13:53:53.510Z,25.10
2019-05-25T13:55:54.954Z,25.10
2019-05-25T13:57:56.133Z,25.00
2019-05-25T13:59:57.486Z,25.00
2019-05-25T14:01:58.633Z,25.10
2019-05-25T14:03:59.918Z,25.10
2019-05-25T14:06:01.187Z,25.10
2019-05-25T14:08:03.711Z,25.10
2019-05-25T14:10:08.011Z,25.10
2019-05-25T14:12:09.275Z,25.40
2019-05-25T14:14:10.670Z,25.50
2019-05-25T14:16:11.937Z,23.40
2019-05-25T14:18:15.107Z,23.90
2019-05-25T14:20:17.338Z,25.10
2019-05-25T14:22:18.598Z,26.00
2019-05-25T14:24:19.869Z,26.50
2019-05-25T14:26:21.125Z,25.30
2019-05-25T14:28:22.508Z,26.20
2019-05-25T14:30:25.117Z,26.40
2019-05-25T14:32:26.388Z,26.20
2019-05-25T14:34:27.658Z,25.90
2019-05-25T14:36:29.070Z,25.30
2019-05-25T14:38:30.367Z,25.10
2019-05-25T14:40:31.634Z,24.90
2019-05-25T14:42:32.929Z,24.70
2019-05-25T14:44:34.212Z,23.80
2019-05-25T14:46:35.566Z,23.40
2019-05-25T14:48:36.750Z,22.20
2019-05-25T14:50:38.094Z,22.60
2019-05-25T14:52:42.881Z,22.70
2019-05-25T14:54:42.583Z,23.10
2019-05-25T14:56:43.841Z,23.40
2019-05-25T14:58:45.203Z,23.30
2019-05-25T15:00:46.886Z,23.40
2019-05-25T15:02:48.155Z,23.60
2019-05-25T15:04:49.436Z,23.90
2019-05-25T15:06:50.856Z,23.90
2019-05-25T15:08:52.363Z,23.00
2019-05-25T15:10:53.966Z,23.10
2019-05-25T15:12:55.236Z,23.10
2019-05-25T15:14:56.489Z,22.90
2019-05-25T15:16:58.073Z,22.70
2019-05-25T15:18:59.397Z,22.70
2019-05-25T15:21:00.740Z,22.40
2019-05-25T15:23:02.274Z,22.30
2019-05-25T15:25:06.669Z,22.30
2019-05-25T15:27:08.939Z,22.20
2019-05-25T15:29:11.563Z,22.30
2019-05-25T15:31:14.119Z,22.60
2019-05-25T15:33:15.497Z,22.80
2019-05-25T15:35:19.980Z,22.90
2019-05-25T15:37:19.986Z,22.10
2019-05-25T15:39:21.270Z,22.30
2019-05-25T15:41:22.578Z,22.00
2019-05-25T15:43:24.189Z,22.20
2019-05-25T15:45:25.481Z,22.30
2019-05-25T15:47:26.738Z,22.20
2019-05-25T15:49:33.247Z,22.20
2019-05-25T15:51:31.325Z,21.90
2019-05-25T15:53:32.693Z,22.10
2019-05-25T15:55:33.968Z,22.20
2019-05-25T15:57:35.245Z,22.10
2019-05-25T15:59:36.545Z,22.10
2019-05-25T16:01:37.958Z,22.20
2019-05-25T16:03:39.234Z,22.20
2019-05-25T16:05:40.605Z,22.20
2019-05-25T16:07:45.398Z,22.30
2019-05-25T16:09:46.774Z,22.50
2019-05-25T16:11:48.137Z,22.70
2019-05-25T16:13:49.434Z,22.80
2019-05-25T16:15:50.743Z,22.80
2019-05-25T16:17:52.194Z,22.80
2019-05-25T16:19:53.464Z,22.60
2019-05-25T16:21:54.766Z,22.60
2019-05-25T16:23:56.187Z,22.50
2019-05-25T16:25:57.478Z,22.50
2019-05-25T16:27:59.030Z,23.00
2019-05-25T16:30:01.087Z,23.70
2019-05-25T16:32:02.334Z,24.50
2019-05-25T16:34:03.619Z,25.20
2019-05-25T16:36:04.978Z,25.80
2019-05-25T16:38:06.412Z,26.10
2019-05-25T16:40:08.183Z,26.50
2019-05-25T16:42:09.615Z,26.80
2019-05-25T16:44:10.937Z,27.10
2019-05-25T16:46:13.214Z,27.30
2019-05-25T16:48:14.510Z,27.10
2019-05-25T16:50:17.286Z,27.40
2019-05-25T16:52:18.629Z,27.60
2019-05-25T16:54:19.805Z,27.70
2019-05-25T16:56:21.066Z,27.80
2019-05-25T16:58:22.314Z,27.80
2019-05-25T17:00:28.105Z,27.80
2019-05-25T17:02:29.422Z,27.90
2019-05-25T17:04:30.703Z,27.80
2019-05-25T17:06:31.966Z,27.70
2019-05-25T17:08:33.265Z,27.70
2019-05-25T17:10:34.942Z,27.70
2019-05-25T17:12:37.230Z,27.70
2019-05-25T17:14:38.503Z,27.70
2019-05-25T17:16:39.780Z,27.60
2019-05-25T17:18:40.937Z,27.60
2019-05-25T17:20:42.229Z,27.40
2019-05-25T17:22:43.477Z,27.20
2019-05-25T17:24:44.761Z,27.10
2019-05-25T17:26:46.025Z,26.90
2019-05-25T17:28:47.604Z,26.10
2019-05-25T17:30:48.993Z,26.10
2019-05-25T17:32:50.155Z,26.00
2019-05-25T17:34:51.706Z,25.70
2019-05-25T17:36:52.968Z,25.40
2019-05-25T17:38:54.270Z,25.00
2019-05-25T17:40:55.544Z,24.60
2019-05-25T17:42:56.869Z,24.20
2019-05-25T17:44:59.178Z,23.90
2019-05-25T17:47:00.576Z,23.60
2019-05-25T17:49:01.895Z,23.40
2019-05-25T17:51:03.293Z,23.20
2019-05-25T17:53:04.546Z,23.00
2019-05-25T17:55:06.801Z,22.80
2019-05-25T17:57:08.064Z,22.70
2019-05-25T17:59:12.265Z,22.60
2019-05-25T18:01:13.877Z,22.30
2019-05-25T18:03:15.107Z,22.30
2019-05-25T18:05:16.389Z,22.20
2019-05-25T18:07:17.654Z,22.20
2019-05-25T18:09:19.029Z,22.10
2019-05-25T18:11:20.339Z,22.00
2019-05-25T18:13:21.871Z,21.90
2019-05-25T18:15:23.021Z,21.90
2019-05-25T18:17:24.290Z,21.80
2019-05-25T18:19:25.895Z,21.70
2019-05-25T18:21:27.512Z,21.60
2019-05-25T18:23:28.997Z,21.30
2019-05-25T18:25:30.314Z,21.20
2019-05-25T18:27:31.583Z,21.10
2019-05-25T18:29:32.903Z,21.00
2019-05-25T18:31:34.178Z,21.00
2019-05-25T18:33:35.501Z,20.90
2019-05-25T18:35:36.778Z,20.90
2019-05-25T18:37:38.046Z,20.80
2019-05-25T18:39:39.447Z,20.70
2019-05-25T18:41:40.690Z,20.50
2019-05-25T18:43:42.161Z,20.50
2019-05-25T18:45:43.330Z,20.40
2019-05-25T18:47:44.693Z,20.20
2019-05-25T18:49:46.429Z,20.10
2019-05-25T18:51:48.055Z,20.00
2019-05-25T18:53:49.354Z,19.80
2019-05-25T18:55:50.626Z,19.70
2019-05-25T18:57:51.891Z,19.60
2019-05-25T18:59:53.312Z,19.50
2019-05-25T19:01:54.833Z,19.40
2019-05-25T19:03:55.984Z,19.30
2019-05-25T19:05:57.562Z,19.30
2019-05-25T19:07:58.755Z,19.30
2019-05-25T19:10:00.118Z,19.20
2019-05-25T19:12:01.485Z,19.20
2019-05-25T19:14:02.759Z,19.10
2019-05-25T19:16:04.138Z,19.00
2019-05-25T19:18:05.446Z,18.90
2019-05-25T19:20:08.089Z,18.90
2019-05-25T19:22:09.541Z,18.80
2019-05-25T19:24:10.837Z,18.70
2019-05-25T19:26:12.118Z,18.60
2019-05-25T19:28:13.408Z,18.50
2019-05-25T19:30:14.889Z,18.40
2019-05-25T19:32:16.171Z,18.40
2019-05-25T19:34:17.462Z,18.30
2019-05-25T19:36:18.805Z,18.20
2019-05-25T19:38:20.062Z,18.10
2019-05-25T19:40:21.362Z,18.10
2019-05-25T19:42:22.702Z,18.00
2019-05-25T19:44:24.554Z,18.00
2019-05-25T19:46:26.054Z,17.90
2019-05-25T19:48:27.326Z,17.80
2019-05-25T19:50:28.621Z,17.70
2019-05-25T19:52:29.902Z,17.60
2019-05-25T19:54:31.277Z,17.50
2019-05-25T19:56:32.561Z,17.40
2019-05-25T19:58:33.845Z,17.30
2019-05-25T20:00:35.142Z,17.30
2019-05-25T20:02:36.658Z,17.20
2019-05-25T20:04:39.030Z,17.20
2019-05-25T20:06:40.508Z,17.10
2019-05-25T20:08:41.810Z,17.10
2019-05-25T20:10:43.114Z,17.10
2019-05-25T20:12:44.391Z,17.10
2019-05-25T20:14:45.803Z,17.00
2019-05-25T20:16:47.075Z,16.90
2019-05-25T20:18:49.385Z,16.80
2019-05-25T20:20:50.650Z,16.70
2019-05-25T20:22:53.812Z,16.70
2019-05-25T20:24:55.144Z,16.60
2019-05-25T20:26:56.509Z,16.50
2019-05-25T20:28:58.777Z,16.50
2019-05-25T20:31:00.050Z,16.40
2019-05-25T20:33:01.344Z,16.40
2019-05-25T20:35:07.196Z,16.30
2019-05-25T20:37:08.562Z,16.20
2019-05-25T20:39:09.845Z,16.20
2019-05-25T20:41:11.141Z,16.10
2019-05-25T20:43:12.446Z,16.00
2019-05-25T20:45:13.830Z,15.90
2019-05-25T20:47:15.345Z,15.80
2019-05-25T20:49:16.606Z,15.80
2019-05-25T20:51:17.967Z,15.70
2019-05-25T20:53:19.490Z,15.60
2019-05-25T20:55:20.890Z,15.60
2019-05-25T20:57:22.170Z,15.50
2019-05-25T20:59:23.434Z,15.50
2019-05-25T21:01:25.063Z,15.40
2019-05-25T21:03:26.313Z,15.30
2019-05-25T21:05:27.628Z,15.20
2019-05-25T21:07:28.897Z,15.20
2019-05-25T21:09:30.193Z,15.20
2019-05-25T21:11:31.498Z,15.10
2019-05-25T21:13:33.863Z,15.10
2019-05-25T21:15:35.127Z,15.10
2019-05-25T21:17:36.442Z,15.00
2019-05-25T21:19:37.944Z,14.90
2019-05-25T21:21:39.223Z,14.90
2019-05-25T21:23:40.517Z,14.80
2019-05-25T21:25:41.775Z,14.80
2019-05-25T21:27:43.043Z,14.70
2019-05-25T21:29:44.425Z,14.70
2019-05-25T21:31:45.788Z,14.70
2019-05-25T21:33:47.057Z,14.60
2019-05-25T21:35:48.333Z,14.60
2019-05-25T21:37:49.861Z,14.50
2019-05-25T21:39:51.394Z,14.50
2019-05-25T21:41:52.654Z,14.50
2019-05-25T21:43:53.930Z,14.40
2019-05-25T21:45:55.205Z,14.40
2019-05-25T21:47:56.745Z,14.40
2019-05-25T21:49:58.050Z,14.30
2019-05-25T21:51:59.417Z,14.20
2019-05-25T21:54:01.013Z,14.20
2019-05-25T21:56:02.905Z,14.10
2019-05-25T21:58:04.183Z,14.10
2019-05-25T22:00:11.187Z,14.10
2019-05-25T22:02:12.642Z,14.00
2019-05-25T22:04:13.914Z,14.00
2019-05-25T22:06:23.688Z,13.80
2019-05-25T22:08:18.624Z,13.90
2019-05-25T22:10:19.777Z,13.90
2019-05-25T22:12:21.050Z,13.90
2019-05-25T22:14:22.338Z,13.90
2019-05-25T22:16:23.597Z,13.80
2019-05-25T22:18:24.885Z,13.90
2019-05-25T22:20:26.146Z,13.80
2019-05-25T22:22:27.413Z,13.80
2019-05-25T22:24:28.718Z,13.70
2019-05-25T22:26:29.983Z,13.50
2019-05-25T22:28:44.379Z,13.10
2019-05-25T22:30:34.416Z,13.20
2019-05-25T22:32:35.690Z,13.20
2019-05-25T22:34:36.974Z,13.30
2019-05-25T22:36:40.796Z,13.40
2019-05-25T22:38:41.403Z,13.40
2019-05-25T22:40:42.689Z,13.50
2019-05-25T22:42:44.205Z,13.50
2019-05-25T22:44:45.482Z,13.40
2019-05-25T22:46:46.754Z,13.40
2019-05-25T22:48:48.274Z,13.40
2019-05-25T22:50:49.540Z,13.30
2019-05-25T22:52:51.819Z,13.30
2019-05-25T22:54:53.081Z,13.20
2019-05-25T22:56:54.369Z,13.10
2019-05-25T22:58:55.639Z,13.10
2019-05-25T23:00:56.996Z,13.00
2019-05-25T23:02:58.266Z,13.00
2019-05-25T23:04:59.546Z,12.90
2019-05-25T23:07:00.811Z,12.90
2019-05-25T23:09:05.713Z,12.90
2019-05-25T23:11:06.993Z,12.80
2019-05-25T23:13:08.544Z,12.80
2019-05-25T23:15:11.247Z,12.70
2019-05-25T23:17:13.049Z,12.80
2019-05-25T23:19:14.328Z,12.80
2019-05-25T23:21:16.701Z,12.70
2019-05-25T23:23:17.981Z,12.60
2019-05-25T23:25:19.249Z,12.70
2019-05-25T23:27:20.769Z,12.60
2019-05-25T23:29:22.032Z,12.50
2019-05-25T23:31:23.314Z,12.40
2019-05-25T23:33:24.917Z,12.40
2019-05-25T23:35:26.199Z,12.40
2019-05-25T23:37:27.488Z,12.40
2019-05-25T23:39:28.792Z,12.40
2019-05-25T23:41:30.698Z,12.30
2019-05-25T23:43:32.208Z,12.30
2019-05-25T23:45:33.518Z,12.30
2019-05-25T23:47:34.976Z,12.30
2019-05-25T23:49:36.251Z,12.30
2019-05-25T23:51:37.514Z,12.10
2019-05-25T23:53:39.793Z,12.20
2019-05-25T23:55:41.313Z,12.20
2019-05-25T23:57:42.595Z,12.30
2019-05-25T23:59:43.890Z,12.20
